createdAt,value
2022-09-07T00:03:59.487Z,1.70
2022-09-07T00:09:03.297Z,1.63
2022-09-07T00:14:07.565Z,1.83
2022-09-07T00:19:11.832Z,1.88
2022-09-07T00:24:14.708Z,1.80
2022-09-07T00:29:17.591Z,1.50
2022-09-07T00:34:21.824Z,1.92
2022-09-07T00:39:24.815Z,1.65
2022-09-07T00:45:01.883Z,2.00
2022-09-07T00:50:13.635Z,1.75
2022-09-07T00:55:18.720Z,1.90
2022-09-07T01:00:22.453Z,2.10
2022-09-07T01:05:30.661Z,2.33
2022-09-07T01:10:33.630Z,2.00
2022-09-07T01:15:45.553Z,2.45
2022-09-07T01:21:22.653Z,2.03
2022-09-07T01:27:04.242Z,2.10
2022-09-07T01:32:14.062Z,2.20
2022-09-07T01:37:23.930Z,2.30
2022-09-07T01:42:31.512Z,2.20
2022-09-07T01:47:40.554Z,2.22
2022-09-07T01:52:49.900Z,2.40
2022-09-07T01:57:56.890Z,2.30
2022-09-07T02:03:10.045Z,2.40
2022-09-07T02:08:17.032Z,2.17
2022-09-07T02:13:24.400Z,2.40
2022-09-07T02:18:34.492Z,2.70
2022-09-07T02:23:45.515Z,2.33
2022-09-07T02:28:49.171Z,2.43
2022-09-07T02:33:53.682Z,2.38
2022-09-07T02:38:56.560Z,2.60
2022-09-07T02:44:00.036Z,2.70
2022-09-07T02:49:11.885Z,2.43
2022-09-07T02:54:30.666Z,2.60
2022-09-07T02:59:47.128Z,2.72
2022-09-07T03:05:02.643Z,2.70
2022-09-07T03:10:07.734Z,2.72
2022-09-07T03:15:12.669Z,2.67
2022-09-07T03:20:18.158Z,2.80
2022-09-07T03:25:23.403Z,2.47
2022-09-07T03:30:26.354Z,2.80
2022-09-07T03:35:30.596Z,2.93
2022-09-07T03:40:33.433Z,2.27
2022-09-07T03:45:36.292Z,2.88
2022-09-07T03:50:40.539Z,3.15
2022-09-07T03:55:43.399Z,2.80
2022-09-07T04:00:46.278Z,3.10
2022-09-07T04:05:50.553Z,2.83
2022-09-07T04:10:53.438Z,3.00
2022-09-07T04:15:56.412Z,3.03
2022-09-07T04:21:01.271Z,3.05
2022-09-07T04:26:04.110Z,3.23
2022-09-07T04:31:07.399Z,3.27
2022-09-07T04:36:12.044Z,3.10
2022-09-07T04:41:16.663Z,3.20
2022-09-07T04:46:21.809Z,3.20
2022-09-07T04:51:28.418Z,3.17
2022-09-07T04:56:31.840Z,3.13
2022-09-07T05:01:35.585Z,3.20
2022-09-07T05:06:40.130Z,3.20
2022-09-07T05:11:43.156Z,3.28
2022-09-07T05:16:46.067Z,3.07
2022-09-07T05:21:50.338Z,3.10
2022-09-07T05:26:53.624Z,3.33
2022-09-07T05:31:56.863Z,3.55
2022-09-07T05:37:01.124Z,3.23
2022-09-07T05:42:04.176Z,3.00
2022-09-07T05:47:07.315Z,2.88
2022-09-07T05:52:11.864Z,3.33
2022-09-07T05:57:15.107Z,3.20
2022-09-07T06:02:18.060Z,3.50
2022-09-07T06:07:23.366Z,3.20
2022-09-07T06:12:26.543Z,3.20
2022-09-07T06:17:31.334Z,3.10
2022-09-07T06:22:37.823Z,3.10
2022-09-07T06:27:40.706Z,3.00
2022-09-07T06:32:44.115Z,3.10
2022-09-07T06:37:49.213Z,3.08
2022-09-07T06:42:52.089Z,3.20
2022-09-07T06:47:55.391Z,3.38
2022-09-07T06:58:24.712Z,3.20
2022-09-07T07:03:31.855Z,3.30
2022-09-07T07:08:36.635Z,3.17
2022-09-07T07:13:41.169Z,3.30
2022-09-07T07:18:45.332Z,2.93
2022-09-07T07:23:52.784Z,3.17
2022-09-07T07:29:00.754Z,3.05
2022-09-07T07:34:05.034Z,3.20
2022-09-07T07:44:32.174Z,3.40
2022-09-07T07:49:34.991Z,3.30
2022-09-07T07:54:39.164Z,3.30
2022-09-07T07:59:42.466Z,3.00
2022-09-07T08:04:45.568Z,2.83
2022-09-07T08:09:49.780Z,2.60
2022-09-07T08:14:54.051Z,3.33
2022-09-07T08:19:56.969Z,2.90
2022-09-07T08:25:01.278Z,3.00
2022-09-07T08:30:04.440Z,3.30
2022-09-07T08:35:08.073Z,3.10
2022-09-07T08:40:16.925Z,3.10
2022-09-07T08:45:26.726Z,3.00
2022-09-07T08:50:33.769Z,3.38
2022-09-07T08:55:41.389Z,3.35
2022-09-07T09:00:44.173Z,6.63
2022-09-07T09:06:01.672Z,4.15
2022-09-07T09:11:11.565Z,3.28
2022-09-07T09:16:21.705Z,3.50
2022-09-07T09:21:24.814Z,3.40
2022-09-07T09:26:32.125Z,3.42
2022-09-07T09:31:36.987Z,3.50
2022-09-07T09:36:46.164Z,3.83
2022-09-07T09:41:50.361Z,3.33
2022-09-07T09:52:42.972Z,3.90
2022-09-07T10:08:56.394Z,3.70
2022-09-07T10:14:00.646Z,3.50
2022-09-07T10:19:03.455Z,3.85
2022-09-07T10:24:16.016Z,4.83
2022-09-07T10:29:29.141Z,4.03
2022-09-07T10:34:45.918Z,5.90
2022-09-07T10:40:01.245Z,4.55
2022-09-07T10:45:19.105Z,3.63
2022-09-07T10:50:31.610Z,4.10
2022-09-07T10:55:40.193Z,4.00
2022-09-07T11:00:58.292Z,4.20
2022-09-07T11:06:14.333Z,4.00
2022-09-07T11:12:00.645Z,3.97
2022-09-07T11:16:54.895Z,3.83
2022-09-07T11:22:04.741Z,4.00
2022-09-07T11:27:12.252Z,4.00
2022-09-07T11:32:22.434Z,4.25
2022-09-07T11:37:31.692Z,4.00
2022-09-07T11:42:46.040Z,4.05
2022-09-07T11:47:53.651Z,4.20
2022-09-07T11:53:01.726Z,4.43
2022-09-07T11:58:25.470Z,4.35
2022-09-07T12:03:49.553Z,4.70
2022-09-07T12:09:15.180Z,4.97
2022-09-07T12:14:35.182Z,4.63
2022-09-07T12:19:39.506Z,5.30
2022-09-07T12:24:45.331Z,5.30
2022-09-07T12:29:48.573Z,5.00
2022-09-07T12:34:55.266Z,5.38
2022-09-07T12:40:32.328Z,5.88
2022-09-07T12:45:52.642Z,5.50
2022-09-07T12:51:02.248Z,4.85
2022-09-07T12:56:21.857Z,5.03
2022-09-07T13:01:36.215Z,5.50
2022-09-07T13:07:08.153Z,5.50
2022-09-07T13:17:57.345Z,5.13
2022-09-07T13:23:23.947Z,5.63
2022-09-07T13:28:34.841Z,5.40
2022-09-07T13:33:50.492Z,5.32
2022-09-07T13:38:55.554Z,5.03
2022-09-07T13:44:01.603Z,5.55
2022-09-07T13:49:13.295Z,5.60
2022-09-07T13:54:27.966Z,5.90
2022-09-07T13:59:34.881Z,5.90
2022-09-07T14:04:42.692Z,5.80
2022-09-07T14:09:48.815Z,5.60
2022-09-07T14:15:10.186Z,5.40
2022-09-07T14:20:15.491Z,4.88
2022-09-07T14:25:22.172Z,5.35
2022-09-07T14:30:29.066Z,5.80
2022-09-07T14:35:34.521Z,5.55
2022-09-07T14:40:38.793Z,5.95
2022-09-07T14:45:41.584Z,5.30
2022-09-07T14:51:00.865Z,5.40
2022-09-07T14:56:20.904Z,5.07
2022-09-07T15:01:40.993Z,4.90
2022-09-07T15:07:01.789Z,5.33
2022-09-07T15:12:24.925Z,5.00
2022-09-07T15:17:43.389Z,5.53
2022-09-07T15:22:46.613Z,5.70
2022-09-07T15:27:50.977Z,5.32
2022-09-07T15:32:54.054Z,5.03
2022-09-07T15:38:05.547Z,4.83
2022-09-07T15:43:19.922Z,4.80
2022-09-07T15:48:25.943Z,4.90
2022-09-07T15:58:57.599Z,4.70
2022-09-07T16:04:01.412Z,4.25
2022-09-07T16:09:07.101Z,4.50
2022-09-07T16:14:12.346Z,4.40
2022-09-07T16:19:20.122Z,4.13
2022-09-07T16:24:23.056Z,4.20
2022-09-07T16:29:27.308Z,3.70
2022-09-07T16:34:30.213Z,4.10
2022-09-07T16:39:33.022Z,4.25
2022-09-07T16:44:37.110Z,4.00
2022-09-07T16:49:39.836Z,3.77
2022-09-07T16:54:42.600Z,4.00
2022-09-07T16:59:46.692Z,4.07
2022-09-07T17:04:50.607Z,3.67
2022-09-07T17:09:53.435Z,3.70
2022-09-07T17:14:57.552Z,3.13
2022-09-07T17:20:00.238Z,3.63
2022-09-07T17:25:02.942Z,3.87
2022-09-07T17:30:08.090Z,3.60
2022-09-07T17:35:10.814Z,3.58
2022-09-07T17:40:13.589Z,3.40
2022-09-07T17:45:18.168Z,3.38
2022-09-07T17:50:20.900Z,2.90
2022-09-07T17:55:23.878Z,3.03
2022-09-07T18:00:28.144Z,2.95
2022-09-07T18:05:30.873Z,3.05
2022-09-07T18:15:58.513Z,3.30
2022-09-07T18:21:01.262Z,3.20
2022-09-07T18:26:04.007Z,3.08
2022-09-07T18:31:10.293Z,3.00
2022-09-07T18:36:13.744Z,2.75
2022-09-07T18:41:17.278Z,3.30
2022-09-07T18:46:23.124Z,2.80
2022-09-07T18:51:26.302Z,2.92
2022-09-07T18:56:29.175Z,2.80
2022-09-07T19:01:33.327Z,2.70
2022-09-07T19:06:36.104Z,2.93
2022-09-07T19:11:41.683Z,2.70
2022-09-07T19:16:45.888Z,2.95
2022-09-07T19:21:49.460Z,2.40
2022-09-07T19:26:54.707Z,2.50
2022-09-07T19:32:07.479Z,2.80
2022-09-07T19:37:12.124Z,2.60
2022-09-07T19:42:14.844Z,2.40
2022-09-07T19:47:19.768Z,2.70
2022-09-07T19:52:22.631Z,2.60
2022-09-07T19:57:25.452Z,2.60
2022-09-07T20:02:29.550Z,2.70
2022-09-07T20:07:32.262Z,2.50
2022-09-07T20:12:35.001Z,2.30
2022-09-07T20:17:39.090Z,2.72
2022-09-07T20:22:41.836Z,2.80
2022-09-07T20:27:44.552Z,2.47
2022-09-07T20:32:48.628Z,2.53
2022-09-07T20:37:51.358Z,2.30
2022-09-07T20:42:54.070Z,2.73
2022-09-07T20:47:58.169Z,2.80
2022-09-07T20:53:00.940Z,2.90
2022-09-07T20:58:04.201Z,2.45
2022-09-07T21:03:08.289Z,2.50
2022-09-07T21:08:11.285Z,2.50
2022-09-07T21:13:14.919Z,2.40
2022-09-07T21:18:19.164Z,2.83
2022-09-07T21:23:22.073Z,2.75
2022-09-07T21:28:24.929Z,2.63
2022-09-07T21:33:30.351Z,2.57
2022-09-07T21:38:34.427Z,2.53
2022-09-07T21:43:37.669Z,2.70
2022-09-07T21:48:41.801Z,2.50
2022-09-07T21:53:45.050Z,2.87
2022-09-07T21:58:48.010Z,2.80
2022-09-07T22:03:56.787Z,2.53
2022-09-07T22:08:59.679Z,2.53
2022-09-07T22:14:04.655Z,2.55
2022-09-07T22:19:08.775Z,2.50
2022-09-07T22:24:15.125Z,2.77
2022-09-07T22:29:17.859Z,3.03
2022-09-07T22:34:22.024Z,2.90
2022-09-07T22:39:24.758Z,2.60
2022-09-07T22:44:28.889Z,2.90
2022-09-07T22:49:32.981Z,3.03
2022-09-07T22:54:35.689Z,2.85
2022-09-07T22:59:38.501Z,3.37
2022-09-07T23:04:43.327Z,2.85
2022-09-07T23:09:46.138Z,3.20
2022-09-07T23:14:48.823Z,3.30
2022-09-07T23:19:52.948Z,3.03
2022-09-07T23:24:55.715Z,2.80
2022-09-07T23:29:58.409Z,3.25
2022-09-07T23:35:03.815Z,3.00
2022-09-07T23:40:08.589Z,3.50
2022-09-07T23:45:11.673Z,3.00
2022-09-07T23:50:15.748Z,2.97
2022-09-07T23:55:18.576Z,3.10
